createdAt,value
2022-11-22T00:01:43.681Z,94634.66
2022-11-22T00:04:12.045Z,94643.28
2022-11-22T00:06:40.252Z,94643.63
2022-11-22T00:09:08.772Z,94653.16
2022-11-22T00:11:37.087Z,94661.50
2022-11-22T00:14:06.784Z,94665.06
2022-11-22T00:16:35.268Z,94658.94
2022-11-22T00:19:03.550Z,94663.25
2022-11-22T00:21:31.758Z,94651.09
2022-11-22T00:24:00.032Z,94656.25
2022-11-22T00:26:28.533Z,94664.28
2022-11-22T00:28:56.769Z,94668.25
2022-11-22T00:31:26.396Z,94668.66
2022-11-22T00:33:54.570Z,94670.16
2022-11-22T00:36:22.780Z,94668.59
2022-11-22T00:38:51.101Z,94662.13
2022-11-22T00:41:19.325Z,94666.16
2022-11-22T00:43:47.607Z,94665.06
2022-11-22T00:46:15.886Z,94669.41
2022-11-22T00:48:45.523Z,94674.44
2022-11-22T00:51:13.866Z,94672.81
2022-11-22T00:53:42.110Z,94689.22
2022-11-22T00:56:10.323Z,94686.59
2022-11-22T00:58:38.625Z,94693.47
2022-11-22T01:01:06.921Z,94694.25
2022-11-22T01:03:35.154Z,94699.44
2022-11-22T01:06:04.899Z,94706.22
2022-11-22T01:08:33.169Z,94690.78
2022-11-22T01:11:02.311Z,94686.38
2022-11-22T01:13:31.090Z,94678.25
2022-11-22T01:16:01.350Z,94691.00
2022-11-22T01:18:29.667Z,94707.44
2022-11-22T01:20:57.937Z,94701.59
2022-11-22T01:23:27.629Z,94702.78
2022-11-22T01:25:56.032Z,94702.47
2022-11-22T01:28:24.333Z,94698.66
2022-11-22T01:30:54.069Z,94705.44
2022-11-22T01:33:22.630Z,94702.28
2022-11-22T01:35:50.883Z,94706.06
2022-11-22T01:38:19.132Z,94704.03
2022-11-22T01:40:48.837Z,94703.28
2022-11-22T01:43:20.133Z,94706.63
2022-11-22T01:45:52.037Z,94709.97
2022-11-22T01:48:32.819Z,94716.28
2022-11-22T01:51:07.267Z,94708.34
2022-11-22T01:53:40.226Z,94704.75
2022-11-22T01:56:16.163Z,94716.66
2022-11-22T01:58:48.530Z,94717.97
2022-11-22T02:01:16.744Z,94691.97
2022-11-22T02:03:48.761Z,94716.19
2022-11-22T02:06:17.531Z,94723.50
2022-11-22T02:08:53.883Z,94713.78
2022-11-22T02:11:27.393Z,94737.66
2022-11-22T02:13:58.626Z,94730.69
2022-11-22T02:16:27.038Z,94732.28
2022-11-22T02:18:55.200Z,94734.53
2022-11-22T02:21:23.560Z,94725.88
2022-11-22T02:24:01.931Z,94738.19
2022-11-22T02:26:33.749Z,94728.00
2022-11-22T02:29:06.479Z,94736.13
2022-11-22T02:31:37.375Z,94740.19
2022-11-22T02:34:05.853Z,94752.28
2022-11-22T02:36:39.131Z,94753.59
2022-11-22T02:39:09.081Z,94748.69
2022-11-22T02:41:39.559Z,94744.50
2022-11-22T02:44:09.642Z,94740.16
2022-11-22T02:46:47.064Z,94734.63
2022-11-22T02:49:18.099Z,94737.00
2022-11-22T02:51:46.364Z,94744.34
2022-11-22T02:54:15.124Z,94748.41
2022-11-22T02:56:44.771Z,94754.25
2022-11-22T02:59:13.152Z,94752.66
2022-11-22T03:01:41.833Z,94746.56
2022-11-22T03:04:10.138Z,94750.50
2022-11-22T03:06:38.428Z,94758.72
2022-11-22T03:09:06.868Z,94748.31
2022-11-22T03:11:35.119Z,94751.78
2022-11-22T03:14:05.100Z,94750.63
2022-11-22T03:16:33.322Z,94755.56
2022-11-22T03:19:01.491Z,94749.47
2022-11-22T03:21:29.709Z,94747.38
2022-11-22T03:23:57.982Z,94742.03
2022-11-22T03:26:26.293Z,94741.69
2022-11-22T03:28:54.545Z,94732.63
2022-11-22T03:31:24.286Z,94748.66
2022-11-22T03:33:52.455Z,94752.75
2022-11-22T03:36:20.761Z,94748.69
2022-11-22T03:38:49.014Z,94760.84
2022-11-22T03:41:17.554Z,94769.28
2022-11-22T03:43:45.796Z,94772.44
2022-11-22T03:46:16.465Z,94774.25
2022-11-22T03:48:46.174Z,94769.47
2022-11-22T03:51:14.500Z,94762.94
2022-11-22T03:53:42.889Z,94787.72
2022-11-22T03:56:11.283Z,94797.47
2022-11-22T03:58:39.572Z,94800.38
2022-11-22T04:01:10.803Z,94808.56
2022-11-22T04:03:43.413Z,94821.44
2022-11-22T04:06:13.090Z,94829.34
2022-11-22T04:08:41.582Z,94825.66
2022-11-22T04:11:09.887Z,94836.47
2022-11-22T04:13:55.536Z,94839.44
2022-11-22T04:16:23.822Z,94834.66
2022-11-22T04:18:52.057Z,94839.63
2022-11-22T04:21:35.524Z,94842.09
2022-11-22T04:24:22.940Z,94840.94
2022-11-22T04:26:51.204Z,94857.38
2022-11-22T04:29:20.181Z,94858.69
2022-11-22T04:32:06.973Z,94868.03
2022-11-22T04:34:35.913Z,94791.84
2022-11-22T04:37:06.036Z,94870.03
2022-11-22T04:39:34.297Z,94859.16
2022-11-22T04:42:19.753Z,94868.25
2022-11-22T04:44:48.438Z,94878.34
2022-11-22T04:47:39.984Z,94867.78
2022-11-22T04:50:30.232Z,94892.84
2022-11-22T04:52:58.922Z,94899.69
2022-11-22T04:55:27.203Z,94892.00
2022-11-22T04:57:59.717Z,94889.38
2022-11-22T05:00:29.238Z,94893.91
2022-11-22T05:02:57.630Z,94902.91
2022-11-22T05:05:26.735Z,94910.63
2022-11-22T05:07:54.936Z,94917.44
2022-11-22T05:10:26.739Z,94921.84
2022-11-22T05:12:56.159Z,94907.56
2022-11-22T05:15:24.388Z,94918.44
2022-11-22T05:17:52.708Z,94913.16
2022-11-22T05:20:21.008Z,94922.69
2022-11-22T05:23:06.682Z,94934.53
2022-11-22T05:25:36.384Z,94925.19
2022-11-22T05:28:04.696Z,94922.69
2022-11-22T05:30:32.992Z,94931.50
2022-11-22T05:33:01.219Z,94932.88
2022-11-22T05:35:29.611Z,94941.31
2022-11-22T05:37:58.079Z,94948.06
2022-11-22T05:40:26.716Z,94940.59
2022-11-22T05:42:56.450Z,94940.16
2022-11-22T05:45:25.802Z,94949.72
2022-11-22T05:47:54.005Z,94950.84
2022-11-22T05:50:22.359Z,94945.63
2022-11-22T05:52:50.610Z,94960.00
2022-11-22T05:55:18.987Z,94964.50
2022-11-22T05:57:47.251Z,94971.78
2022-11-22T06:00:18.310Z,94966.94
2022-11-22T06:02:46.545Z,94963.13
2022-11-22T06:05:14.954Z,94977.16
2022-11-22T06:07:43.286Z,94976.91
2022-11-22T06:10:12.287Z,94974.81
2022-11-22T06:12:40.528Z,94975.00
2022-11-22T06:15:09.980Z,94998.41
2022-11-22T06:17:39.607Z,94989.69
2022-11-22T06:20:09.129Z,94989.16
2022-11-22T06:22:37.326Z,94985.94
2022-11-22T06:25:06.367Z,94991.66
2022-11-22T06:27:34.538Z,94989.06
2022-11-22T06:30:02.790Z,94994.25
2022-11-22T06:32:34.292Z,95011.22
2022-11-22T06:35:05.284Z,95019.56
2022-11-22T06:37:33.530Z,95027.22
2022-11-22T06:40:01.740Z,95026.25
2022-11-22T06:42:30.250Z,95032.34
2022-11-22T06:44:58.542Z,95040.22
2022-11-22T06:47:26.764Z,95038.44
2022-11-22T06:49:55.072Z,95043.97
2022-11-22T06:52:24.786Z,95038.88
2022-11-22T06:54:53.025Z,95026.06
2022-11-22T06:57:22.334Z,95029.97
2022-11-22T06:59:50.616Z,95021.81
2022-11-22T07:02:18.834Z,95033.16
2022-11-22T07:05:17.210Z,95020.50
2022-11-22T07:07:36.777Z,95032.16
2022-11-22T07:10:05.521Z,95025.22
2022-11-22T07:12:33.758Z,95015.53
2022-11-22T07:15:02.015Z,95013.56
2022-11-22T07:17:30.264Z,95008.56
2022-11-22T07:19:58.543Z,95005.00
2022-11-22T07:22:26.824Z,95003.78
2022-11-22T07:24:56.479Z,95006.44
2022-11-22T07:27:24.640Z,94997.88
2022-11-22T07:29:52.923Z,94996.78
2022-11-22T07:32:21.195Z,94985.66
2022-11-22T07:34:49.406Z,94984.53
2022-11-22T07:37:17.584Z,94985.56
2022-11-22T07:39:45.753Z,94992.50
2022-11-22T07:42:15.366Z,94988.19
2022-11-22T07:44:43.597Z,94998.31
2022-11-22T07:47:11.868Z,94986.44
2022-11-22T07:49:40.483Z,94982.72
2022-11-22T07:52:08.721Z,94979.56
2022-11-22T07:54:36.993Z,94987.72
2022-11-22T07:57:05.339Z,94998.91
2022-11-22T07:59:34.980Z,95002.91
2022-11-22T08:02:03.468Z,94990.91
2022-11-22T08:04:31.766Z,94993.94
2022-11-22T08:06:59.996Z,94987.78
2022-11-22T08:09:31.400Z,94987.06
2022-11-22T08:11:59.783Z,94971.91
2022-11-22T08:14:28.580Z,94961.97
2022-11-22T08:16:59.109Z,94957.13
2022-11-22T08:19:28.208Z,94969.69
2022-11-22T08:21:58.602Z,94963.88
2022-11-22T08:24:27.166Z,94969.66
2022-11-22T08:26:55.423Z,94946.47
2022-11-22T08:29:23.808Z,94956.06
2022-11-22T08:31:52.246Z,94968.91
2022-11-22T08:34:21.882Z,94972.53
2022-11-22T08:36:50.147Z,94962.91
2022-11-22T08:39:18.387Z,94947.66
2022-11-22T08:41:46.734Z,94941.97
2022-11-22T08:44:14.980Z,94932.56
2022-11-22T08:46:43.244Z,94938.75
2022-11-22T08:49:12.610Z,94937.28
2022-11-22T08:51:45.134Z,94928.31
2022-11-22T08:54:14.197Z,94925.47
2022-11-22T08:56:42.479Z,94930.41
2022-11-22T08:59:10.748Z,94925.53
2022-11-22T09:01:39.006Z,94923.19
2022-11-22T09:04:07.284Z,94927.84
2022-11-22T09:09:40.517Z,94926.59
2022-11-22T09:12:09.474Z,94922.78
2022-11-22T09:14:37.647Z,94921.78
2022-11-22T09:17:07.455Z,94918.97
2022-11-22T09:19:35.684Z,94932.28
2022-11-22T09:22:03.920Z,94928.72
2022-11-22T09:24:33.458Z,94934.84
2022-11-22T09:27:01.595Z,94931.25
2022-11-22T09:29:29.981Z,94939.41
2022-11-22T09:31:58.518Z,94940.13
2022-11-22T09:34:26.779Z,94931.28
2022-11-22T09:36:55.003Z,94934.81
2022-11-22T09:39:23.287Z,94927.84
2022-11-22T09:42:33.320Z,94927.53
2022-11-22T09:45:30.618Z,94916.53
2022-11-22T09:48:10.486Z,94913.72
2022-11-22T09:50:49.627Z,94912.59
2022-11-22T09:53:24.199Z,94901.34
2022-11-22T09:55:55.784Z,94908.16
2022-11-22T09:58:30.848Z,94902.84
2022-11-22T10:01:07.821Z,94895.41
2022-11-22T10:03:45.310Z,94890.66
2022-11-22T10:06:19.482Z,94888.88
2022-11-22T10:08:59.847Z,94891.50
2022-11-22T10:11:37.113Z,94899.09
2022-11-22T10:14:14.676Z,94899.19
2022-11-22T10:16:52.023Z,94899.31
2022-11-22T10:19:29.306Z,94892.50
2022-11-22T10:21:57.678Z,94880.00
2022-11-22T10:24:25.932Z,94890.41
2022-11-22T10:26:56.081Z,94869.78
2022-11-22T10:29:36.739Z,94870.09
2022-11-22T10:32:14.975Z,94874.63
2022-11-22T10:34:58.246Z,94833.34
2022-11-22T10:37:35.731Z,94854.38
2022-11-22T10:40:12.475Z,94851.56
2022-11-22T10:42:59.199Z,94850.28
2022-11-22T10:45:34.754Z,94837.22
2022-11-22T10:48:15.010Z,94817.13
2022-11-22T10:50:55.563Z,94809.56
2022-11-22T10:53:38.114Z,94817.75
2022-11-22T10:56:14.311Z,94823.22
2022-11-22T10:58:56.322Z,94804.78
2022-11-22T11:01:34.784Z,94804.81
2022-11-22T11:04:05.478Z,94805.56
2022-11-22T11:12:29.110Z,94836.75
2022-11-22T11:15:03.540Z,94833.72
2022-11-22T11:17:36.483Z,94840.50
2022-11-22T11:20:14.203Z,94778.09
2022-11-22T11:23:13.059Z,94800.91
2022-11-22T11:25:33.304Z,94781.25
2022-11-22T11:28:06.302Z,94772.28
2022-11-22T11:30:40.671Z,94762.38
2022-11-22T11:33:19.465Z,94724.03
2022-11-22T11:35:49.183Z,94744.22
2022-11-22T11:38:28.398Z,94757.34
2022-11-22T11:40:56.910Z,94750.41
2022-11-22T11:43:26.403Z,94742.31
2022-11-22T11:45:54.820Z,94749.13
2022-11-22T11:48:31.043Z,94752.03
2022-11-22T11:51:13.770Z,94741.38
2022-11-22T11:53:43.600Z,94733.03
2022-11-22T11:56:36.516Z,94726.84
2022-11-22T11:59:12.319Z,94664.78
2022-11-22T12:01:48.894Z,94734.19
2022-11-22T12:04:22.986Z,94734.16
2022-11-22T12:07:03.972Z,94728.84
2022-11-22T12:09:35.366Z,94730.38
2022-11-22T12:12:17.158Z,94721.22
2022-11-22T12:15:10.339Z,94701.22
2022-11-22T12:17:51.165Z,94725.00
2022-11-22T12:20:24.719Z,94713.34
2022-11-22T12:23:06.095Z,94720.59
2022-11-22T12:25:37.334Z,94725.38
2022-11-22T12:28:19.047Z,94724.53
2022-11-22T12:30:50.955Z,94733.28
2022-11-22T12:33:23.838Z,94738.69
2022-11-22T12:35:56.657Z,94750.19
2022-11-22T12:38:32.973Z,94750.78
2022-11-22T12:41:06.971Z,94759.09
2022-11-22T12:43:38.969Z,94755.16
2022-11-22T12:46:12.213Z,94724.28
2022-11-22T12:48:48.765Z,94687.06
2022-11-22T12:51:24.635Z,94723.25
2022-11-22T12:53:57.498Z,94678.09
2022-11-22T12:56:33.685Z,94684.63
2022-11-22T12:59:07.622Z,94676.88
2022-11-22T13:01:42.573Z,94671.00
2022-11-22T13:04:16.898Z,94669.34
2022-11-22T13:06:51.531Z,94647.47
2022-11-22T13:09:24.429Z,94657.81
2022-11-22T13:11:58.030Z,94660.81
2022-11-22T13:14:33.871Z,94657.03
2022-11-22T13:17:07.790Z,94522.66
2022-11-22T13:19:41.936Z,94680.03
2022-11-22T13:22:18.042Z,94717.44
2022-11-22T13:25:03.165Z,94730.00
2022-11-22T13:27:36.069Z,94728.56
2022-11-22T13:30:05.102Z,94731.72
2022-11-22T13:32:36.157Z,94741.00
2022-11-22T13:35:19.144Z,94731.78
2022-11-22T13:37:50.086Z,94691.81
2022-11-22T13:40:30.074Z,94719.78
2022-11-22T13:43:54.580Z,94715.22
2022-11-22T13:46:52.034Z,94713.09
2022-11-22T13:49:48.271Z,94688.03
2022-11-22T13:52:48.896Z,94681.50
2022-11-22T13:55:41.608Z,94672.31
2022-11-22T13:58:54.699Z,94672.50
2022-11-22T14:01:57.360Z,94674.00
2022-11-22T14:04:40.991Z,94679.44
2022-11-22T14:07:28.706Z,94682.34
2022-11-22T14:09:59.012Z,94668.97
2022-11-22T14:13:15.148Z,94673.78
2022-11-22T14:15:57.079Z,94677.75
2022-11-22T14:18:45.834Z,94689.59
2022-11-22T14:21:23.477Z,94693.94
2022-11-22T14:24:04.816Z,94685.63
2022-11-22T14:26:41.782Z,94672.72
2022-11-22T14:30:01.111Z,94666.56
2022-11-22T14:32:43.234Z,94669.19
2022-11-22T14:35:29.190Z,94658.44
2022-11-22T14:38:03.566Z,94659.22
2022-11-22T14:40:35.357Z,94670.97
2022-11-22T14:43:07.362Z,94667.13
2022-11-22T14:45:44.672Z,94671.75
2022-11-22T14:48:20.378Z,94669.31
2022-11-22T14:51:01.926Z,94657.41
2022-11-22T14:53:37.099Z,94665.63
2022-11-22T14:56:09.434Z,94668.19
2022-11-22T14:58:42.346Z,94665.88
2022-11-22T15:01:27.349Z,94667.66
2022-11-22T15:09:10.447Z,94684.41
2022-11-22T15:09:11.679Z,94699.97
2022-11-22T15:11:02.244Z,94683.00
2022-11-22T15:13:53.153Z,94670.41
2022-11-22T15:57:31.754Z,94688.06
2022-11-22T16:00:00.323Z,94697.84
2022-11-22T16:02:33.538Z,94700.78
2022-11-22T16:06:10.805Z,94694.38
2022-11-22T16:07:54.722Z,94687.41
2022-11-22T16:10:26.964Z,94701.63
2022-11-22T16:12:55.732Z,94701.19
2022-11-22T16:15:28.955Z,94706.59
2022-11-22T16:18:07.950Z,94703.06
2022-11-22T16:20:37.510Z,94697.72
2022-11-22T16:23:27.196Z,94702.84
2022-11-22T16:26:00.444Z,94698.34
2022-11-22T16:28:38.235Z,94705.91
2022-11-22T16:31:17.525Z,94683.44
2022-11-22T16:33:47.373Z,94628.22
2022-11-22T16:36:17.022Z,94696.13
2022-11-22T16:38:45.973Z,94711.53
2022-11-22T16:41:20.908Z,94675.19
2022-11-22T16:43:51.279Z,94706.31
2022-11-22T16:46:19.665Z,94689.88
2022-11-22T16:48:48.316Z,94693.09
2022-11-22T16:51:21.065Z,94696.00
2022-11-22T16:53:51.382Z,94661.44
2022-11-22T16:56:22.446Z,94717.66
2022-11-22T16:58:52.006Z,94684.03
2022-11-22T17:01:22.894Z,94707.97
2022-11-22T17:03:53.611Z,94699.34
2022-11-22T17:06:24.473Z,94693.44
2022-11-22T17:08:54.765Z,94650.59
2022-11-22T17:11:26.690Z,94675.16
2022-11-22T17:13:55.973Z,94676.06
2022-11-22T17:16:24.351Z,94678.94
2022-11-22T17:18:53.436Z,94662.00
2022-11-22T17:21:28.499Z,94658.94
2022-11-22T17:24:00.503Z,94658.84
2022-11-22T17:26:32.835Z,94660.31
2022-11-22T17:29:01.408Z,94598.47
2022-11-22T17:31:30.636Z,94654.59
2022-11-22T17:34:00.673Z,94660.41
2022-11-22T17:36:30.579Z,94661.81
2022-11-22T17:38:59.920Z,94658.06
2022-11-22T17:41:30.577Z,94643.38
2022-11-22T17:43:59.536Z,94633.84
2022-11-22T17:46:29.702Z,94634.81
2022-11-22T17:49:00.807Z,94597.06
2022-11-22T17:51:30.577Z,94599.88
2022-11-22T17:54:00.087Z,94584.41
2022-11-22T17:56:30.649Z,94597.84
2022-11-22T17:58:58.878Z,94608.22
2022-11-22T18:01:29.285Z,94604.81
2022-11-22T18:03:57.847Z,94600.16
2022-11-22T18:06:27.408Z,94592.69
2022-11-22T18:08:55.831Z,94579.22
2022-11-22T18:11:24.024Z,94571.72
2022-11-22T18:13:54.092Z,94595.53
2022-11-22T18:16:28.581Z,94586.41
2022-11-22T18:19:01.167Z,94601.88
2022-11-22T18:21:30.452Z,94612.53
2022-11-22T18:23:59.379Z,94600.84
2022-11-22T18:26:43.132Z,94593.97
2022-11-22T18:32:02.825Z,94582.91
2022-11-22T18:34:31.863Z,94563.84
2022-11-22T18:37:03.573Z,94579.53
2022-11-22T18:39:34.759Z,94569.19
2022-11-22T18:42:05.377Z,94569.47
2022-11-22T18:44:35.741Z,94563.63
2022-11-22T18:47:04.118Z,94551.78
2022-11-22T18:49:32.942Z,94558.16
2022-11-22T18:52:01.981Z,94555.72
2022-11-22T18:54:30.680Z,94561.63
2022-11-22T18:56:59.222Z,94563.28
2022-11-22T18:59:27.538Z,94561.06
2022-11-22T19:01:57.183Z,94562.94
2022-11-22T19:04:25.636Z,94563.03
2022-11-22T19:06:55.584Z,94564.63
2022-11-22T19:09:23.866Z,94555.97
2022-11-22T19:11:58.253Z,94552.91
2022-11-22T19:14:29.164Z,94557.53
2022-11-22T19:16:59.255Z,94530.09
2022-11-22T19:19:27.870Z,94523.09
2022-11-22T19:21:56.224Z,94523.81
2022-11-22T19:24:24.634Z,94520.69
2022-11-22T19:26:53.167Z,94519.22
2022-11-22T19:29:21.846Z,94514.13
2022-11-22T19:31:50.303Z,94501.84
2022-11-22T19:34:19.971Z,94503.72
2022-11-22T19:36:48.272Z,94497.38
2022-11-22T19:39:17.320Z,94497.16
2022-11-22T19:41:46.132Z,94494.88
2022-11-22T19:44:18.129Z,94483.84
2022-11-22T19:46:49.688Z,94510.88
2022-11-22T19:49:19.359Z,94509.53
2022-11-22T19:51:47.562Z,94516.09
2022-11-22T19:54:16.047Z,94500.34
2022-11-22T19:56:47.001Z,94514.91
2022-11-22T19:59:16.164Z,94514.34
2022-11-22T20:01:44.970Z,94519.91
2022-11-22T20:04:15.400Z,94522.56
2022-11-22T20:06:49.950Z,94521.50
2022-11-22T20:09:18.891Z,94520.56
2022-11-22T20:11:47.176Z,94511.69
2022-11-22T20:14:15.452Z,94501.41
2022-11-22T20:16:43.902Z,94505.72
2022-11-22T20:19:12.884Z,94513.44
2022-11-22T20:21:42.265Z,94518.66
2022-11-22T20:24:13.247Z,94510.81
2022-11-22T20:26:41.475Z,94510.00
2022-11-22T20:29:13.915Z,94500.41
2022-11-22T20:31:42.167Z,94503.94
2022-11-22T20:34:11.269Z,94488.81
2022-11-22T20:36:39.591Z,94464.97
2022-11-22T20:39:10.637Z,94499.38
2022-11-22T20:41:41.369Z,94494.50
2022-11-22T20:44:13.718Z,94493.69
2022-11-22T20:46:42.409Z,94483.66
2022-11-22T20:49:10.617Z,94462.75
2022-11-22T20:51:40.031Z,94473.34
2022-11-22T20:54:08.972Z,94467.06
2022-11-22T20:56:37.289Z,94462.75
2022-11-22T20:59:07.259Z,94457.81
2022-11-22T21:01:35.621Z,94452.63
2022-11-22T21:04:04.231Z,94450.56
2022-11-22T21:06:33.038Z,94458.72
2022-11-22T21:09:01.232Z,94454.44
2022-11-22T21:11:31.127Z,94462.53
2022-11-22T21:13:59.989Z,94446.50
2022-11-22T21:16:30.931Z,94415.75
2022-11-22T21:19:01.649Z,94428.34
2022-11-22T21:21:31.597Z,94424.13
2022-11-22T21:24:01.457Z,94421.56
2022-11-22T21:26:30.168Z,94416.66
2022-11-22T21:28:59.509Z,94417.81
2022-11-22T21:31:29.577Z,94411.25
2022-11-22T21:33:57.912Z,94403.88
2022-11-22T21:36:26.483Z,94409.28
2022-11-22T21:38:54.743Z,94398.69
2022-11-22T21:41:39.474Z,94392.06
2022-11-22T21:44:09.073Z,94382.94
2022-11-22T21:46:38.680Z,94379.97
2022-11-22T21:49:08.010Z,94380.19
2022-11-22T21:51:36.282Z,94375.88
2022-11-22T21:54:05.460Z,94332.75
2022-11-22T21:56:34.015Z,94344.41
2022-11-22T21:59:02.343Z,94332.63
2022-11-22T22:01:30.802Z,94340.97
2022-11-22T22:04:00.451Z,94338.69
2022-11-22T22:06:28.715Z,94343.38
2022-11-22T22:08:56.971Z,94348.19
2022-11-22T22:11:25.400Z,94360.69
2022-11-22T22:13:54.882Z,94357.78
2022-11-22T22:16:25.977Z,94355.09
2022-11-22T22:18:54.715Z,94352.63
2022-11-22T22:21:24.386Z,94348.41
2022-11-22T22:23:53.596Z,94350.34
2022-11-22T22:26:21.872Z,94338.56
2022-11-22T22:28:50.069Z,94327.34
2022-11-22T22:31:22.477Z,94319.34
2022-11-22T22:33:52.390Z,94310.00
2022-11-22T22:36:21.190Z,94277.63
2022-11-22T22:38:51.146Z,94309.41
2022-11-22T22:41:19.846Z,94303.91
2022-11-22T22:43:50.781Z,94306.09
2022-11-22T22:46:20.676Z,94305.75
2022-11-22T22:48:50.016Z,94305.78
2022-11-22T22:51:20.250Z,94306.59
2022-11-22T22:53:50.353Z,94310.19
2022-11-22T22:56:20.331Z,94306.53
2022-11-22T22:58:48.778Z,94289.50
2022-11-22T23:01:18.799Z,94281.97
2022-11-22T23:03:49.068Z,94270.69
2022-11-22T23:06:18.254Z,94266.84
2022-11-22T23:08:47.989Z,94278.53
2022-11-22T23:11:19.186Z,94259.59
2022-11-22T23:13:47.670Z,94255.59
2022-11-22T23:16:16.820Z,94248.06
2022-11-22T23:18:46.020Z,94252.50
2022-11-22T23:21:16.331Z,94247.06
2022-11-22T23:23:44.638Z,94240.13
2022-11-22T23:26:14.407Z,94241.13
2022-11-22T23:28:44.012Z,94235.63
2022-11-22T23:31:15.633Z,94236.94
2022-11-22T23:33:45.307Z,94221.84
2022-11-22T23:36:15.456Z,94226.00
2022-11-22T23:38:44.392Z,94221.28
2022-11-22T23:41:13.419Z,94221.06
2022-11-22T23:43:43.662Z,94217.31
2022-11-22T23:46:16.288Z,94217.16
2022-11-22T23:48:45.450Z,94214.47
2022-11-22T23:51:14.343Z,94208.47
2022-11-22T23:53:43.631Z,94196.81
2022-11-22T23:56:20.274Z,94212.81
2022-11-22T23:58:51.900Z,94200.72
